createdAt,value
2023-03-24T00:00:05.647Z,54.82
2023-03-24T00:02:32.031Z,55.12
2023-03-24T00:04:58.368Z,55.26
2023-03-24T00:07:25.349Z,55.64
2023-03-24T00:09:51.717Z,55.14
2023-03-24T00:12:17.993Z,55.30
2023-03-24T00:14:44.284Z,55.50
2023-03-24T00:17:10.595Z,56.03
2023-03-24T00:19:36.858Z,56.23
2023-03-24T00:22:03.113Z,56.21
2023-03-24T00:24:29.382Z,55.93
2023-03-24T00:26:55.646Z,56.91
2023-03-24T00:29:21.945Z,56.74
2023-03-24T00:31:48.193Z,56.82
2023-03-24T00:34:14.474Z,56.90
2023-03-24T00:36:40.771Z,57.74
2023-03-24T00:39:07.074Z,57.85
2023-03-24T00:41:33.338Z,57.97
2023-03-24T00:43:59.650Z,57.63
2023-03-24T00:46:25.924Z,56.82
2023-03-24T00:48:52.307Z,57.51
2023-03-24T00:51:18.566Z,57.06
2023-03-24T00:53:44.900Z,57.24
2023-03-24T00:56:11.167Z,56.49
2023-03-24T00:58:37.440Z,57.07
2023-03-24T01:01:03.805Z,57.02
2023-03-24T01:03:30.087Z,57.15
2023-03-24T01:05:56.343Z,57.08
2023-03-24T01:08:22.618Z,57.06
2023-03-24T01:10:48.921Z,56.79
2023-03-24T01:13:15.205Z,57.26
2023-03-24T01:15:41.487Z,57.29
2023-03-24T01:18:07.803Z,57.62
2023-03-24T01:20:34.177Z,57.14
2023-03-24T01:23:00.468Z,56.65
2023-03-24T01:25:26.710Z,57.14
2023-03-24T01:27:52.994Z,57.01
2023-03-24T01:30:19.267Z,57.23
2023-03-24T01:32:45.569Z,57.34
2023-03-24T01:35:11.938Z,56.76
2023-03-24T01:37:38.214Z,56.87
2023-03-24T01:40:04.488Z,56.61
2023-03-24T01:42:30.772Z,57.02
2023-03-24T01:44:57.054Z,56.60
2023-03-24T01:47:23.313Z,56.14
2023-03-24T01:49:49.598Z,56.45
2023-03-24T01:52:15.885Z,56.42
2023-03-24T01:54:42.137Z,56.13
2023-03-24T01:57:08.428Z,56.47
2023-03-24T01:59:34.721Z,56.47
2023-03-24T02:02:00.997Z,57.03
2023-03-24T02:04:27.316Z,56.87
2023-03-24T02:06:53.614Z,56.31
2023-03-24T02:09:19.875Z,56.03
2023-03-24T02:11:46.167Z,56.82
2023-03-24T02:14:12.450Z,55.78
2023-03-24T02:16:38.813Z,55.83
2023-03-24T02:19:05.111Z,55.90
2023-03-24T02:21:31.372Z,55.54
2023-03-24T02:23:57.650Z,55.66
2023-03-24T02:26:23.942Z,55.73
2023-03-24T02:28:50.233Z,55.65
2023-03-24T02:31:16.526Z,55.79
2023-03-24T02:33:42.814Z,55.82
2023-03-24T02:36:09.100Z,55.79
2023-03-24T02:38:35.386Z,56.38
2023-03-24T02:41:01.653Z,56.68
2023-03-24T02:43:27.915Z,57.20
2023-03-24T02:45:54.232Z,56.62
2023-03-24T02:48:20.507Z,56.45
2023-03-24T02:50:46.946Z,57.02
2023-03-24T02:53:13.362Z,57.19
2023-03-24T02:55:39.624Z,57.52
2023-03-24T02:58:05.890Z,57.47
2023-03-24T03:00:32.149Z,58.02
2023-03-24T03:02:58.452Z,58.09
2023-03-24T03:05:24.741Z,58.33
2023-03-24T03:07:51.021Z,58.45
2023-03-24T03:10:17.277Z,58.18
2023-03-24T03:12:43.544Z,58.08
2023-03-24T03:15:09.815Z,58.46
2023-03-24T03:17:36.119Z,58.23
2023-03-24T03:20:02.416Z,58.13
2023-03-24T03:22:28.663Z,58.53
2023-03-24T03:24:54.934Z,58.87
2023-03-24T03:27:21.193Z,58.51
2023-03-24T03:29:47.479Z,59.12
2023-03-24T03:32:13.726Z,59.72
2023-03-24T03:34:40.006Z,59.81
2023-03-24T03:37:06.263Z,59.85
2023-03-24T03:39:32.555Z,59.48
2023-03-24T03:41:58.835Z,59.52
2023-03-24T03:44:25.104Z,59.93
2023-03-24T03:46:51.437Z,59.97
2023-03-24T03:49:17.703Z,59.55
2023-03-24T03:51:43.990Z,59.34
2023-03-24T03:54:10.287Z,59.91
2023-03-24T03:56:36.615Z,59.90
2023-03-24T03:59:02.953Z,59.52
2023-03-24T04:01:29.253Z,59.92
2023-03-24T04:03:55.611Z,59.50
2023-03-24T04:06:21.915Z,59.49
2023-03-24T04:08:48.188Z,59.90
2023-03-24T04:11:14.459Z,60.04
2023-03-24T04:13:40.731Z,59.80
2023-03-24T04:16:07.118Z,59.36
2023-03-24T04:18:33.447Z,59.92
2023-03-24T04:20:59.724Z,59.30
2023-03-24T04:23:25.994Z,59.42
2023-03-24T04:25:52.292Z,59.39
2023-03-24T04:28:18.585Z,59.87
2023-03-24T04:30:44.849Z,59.39
2023-03-24T04:33:11.120Z,59.38
2023-03-24T04:35:37.400Z,59.91
2023-03-24T04:38:03.700Z,60.18
2023-03-24T04:40:29.949Z,59.58
2023-03-24T04:42:56.261Z,59.75
2023-03-24T04:45:22.515Z,59.96
2023-03-24T04:47:48.815Z,60.21
2023-03-24T04:50:15.131Z,60.02
2023-03-24T04:52:41.399Z,60.48
2023-03-24T04:55:07.673Z,60.28
2023-03-24T04:57:33.933Z,59.82
2023-03-24T05:00:00.204Z,59.96
2023-03-24T05:02:26.512Z,60.10
2023-03-24T05:04:52.782Z,60.42
2023-03-24T05:07:19.051Z,60.37
2023-03-24T05:09:45.331Z,59.92
2023-03-24T05:12:11.585Z,60.67
2023-03-24T05:14:37.838Z,61.17
2023-03-24T05:17:04.094Z,60.35
2023-03-24T05:19:30.352Z,60.06
2023-03-24T05:21:56.616Z,60.45
2023-03-24T05:24:22.910Z,60.28
2023-03-24T05:26:49.172Z,60.71
2023-03-24T05:29:15.419Z,61.13
2023-03-24T05:31:41.670Z,60.76
2023-03-24T05:34:07.935Z,60.47
2023-03-24T05:36:34.186Z,60.88
2023-03-24T05:39:00.461Z,61.14
2023-03-24T05:41:26.744Z,61.65
2023-03-24T05:43:53.032Z,61.21
2023-03-24T05:46:19.337Z,60.85
2023-03-24T05:48:45.632Z,60.75
2023-03-24T05:51:11.901Z,61.45
2023-03-24T05:53:38.160Z,61.51
2023-03-24T05:56:04.430Z,61.44
2023-03-24T05:58:30.711Z,61.21
2023-03-24T06:00:56.967Z,60.52
2023-03-24T06:03:23.498Z,60.73
2023-03-24T06:05:49.951Z,60.83
2023-03-24T06:08:16.286Z,61.24
2023-03-24T06:10:42.549Z,61.10
2023-03-24T06:13:08.822Z,61.00
2023-03-24T06:15:35.175Z,60.92
2023-03-24T06:18:01.504Z,61.71
2023-03-24T06:20:27.780Z,61.24
2023-03-24T06:22:54.041Z,61.39
2023-03-24T06:25:20.376Z,61.09
2023-03-24T06:27:46.667Z,61.81
2023-03-24T06:30:12.931Z,61.28
2023-03-24T06:32:39.225Z,62.15
2023-03-24T06:35:05.541Z,61.02
2023-03-24T06:37:31.797Z,61.30
2023-03-24T06:39:58.111Z,60.85
2023-03-24T06:42:24.407Z,61.33
2023-03-24T06:44:50.671Z,61.25
2023-03-24T06:47:16.940Z,61.44
2023-03-24T06:49:43.201Z,60.49
2023-03-24T06:52:09.503Z,61.48
2023-03-24T06:54:35.792Z,61.58
2023-03-24T06:57:02.120Z,62.09
2023-03-24T06:59:28.489Z,61.82
2023-03-24T07:01:54.796Z,61.79
2023-03-24T07:04:21.094Z,61.99
2023-03-24T07:07:05.109Z,61.79
2023-03-24T07:09:33.645Z,62.57
2023-03-24T07:11:59.907Z,62.18
2023-03-24T07:14:26.166Z,60.72
2023-03-24T07:16:52.445Z,61.19
2023-03-24T07:19:18.720Z,60.95
2023-03-24T07:21:44.991Z,60.42
2023-03-24T07:24:11.244Z,60.74
2023-03-24T07:26:37.515Z,61.03
2023-03-24T07:29:03.775Z,60.28
2023-03-24T07:31:30.103Z,60.44
2023-03-24T07:33:56.377Z,60.71
2023-03-24T07:36:22.644Z,60.93
2023-03-24T07:38:48.933Z,60.27
2023-03-24T07:41:15.193Z,59.66
2023-03-24T07:43:41.470Z,60.41
2023-03-24T07:46:09.285Z,60.27
2023-03-24T07:48:37.079Z,60.14
2023-03-24T07:51:03.371Z,60.77
2023-03-24T07:53:29.657Z,60.63
2023-03-24T07:55:55.896Z,60.78
2023-03-24T07:58:22.166Z,60.44
2023-03-24T08:00:48.520Z,61.32
2023-03-24T08:03:15.112Z,60.96
2023-03-24T08:05:41.725Z,60.53
2023-03-24T08:08:08.005Z,60.75
2023-03-24T08:10:34.275Z,60.71
2023-03-24T08:13:00.546Z,60.87
2023-03-24T08:15:26.809Z,60.75
2023-03-24T08:17:53.173Z,60.66
2023-03-24T08:20:19.450Z,60.49
2023-03-24T08:22:45.721Z,61.11
2023-03-24T08:25:11.987Z,60.71
2023-03-24T08:27:38.264Z,60.39
2023-03-24T08:30:04.537Z,60.57
2023-03-24T08:32:30.877Z,60.45
2023-03-24T08:34:57.191Z,59.97
2023-03-24T08:37:23.480Z,60.58
2023-03-24T08:39:49.758Z,59.74
2023-03-24T08:42:16.049Z,60.46
2023-03-24T08:44:42.343Z,59.63
2023-03-24T08:47:08.590Z,60.03
2023-03-24T08:49:34.864Z,59.38
2023-03-24T08:52:01.102Z,59.99
2023-03-24T08:54:27.377Z,59.52
2023-03-24T08:56:53.751Z,59.76
2023-03-24T08:59:20.106Z,59.43
2023-03-24T09:01:46.470Z,59.91
2023-03-24T09:04:12.874Z,59.37
2023-03-24T09:06:39.241Z,59.61
2023-03-24T09:09:05.527Z,59.55
2023-03-24T09:11:31.784Z,58.68
2023-03-24T09:13:58.067Z,59.43
2023-03-24T09:16:24.379Z,59.30
2023-03-24T09:18:50.688Z,59.88
2023-03-24T09:21:16.953Z,59.52
2023-03-24T09:23:43.309Z,59.21
2023-03-24T09:26:09.590Z,59.32
2023-03-24T09:28:35.894Z,59.56
2023-03-24T09:31:02.272Z,59.04
2023-03-24T09:33:28.620Z,59.23
2023-03-24T09:35:55.317Z,59.22
2023-03-24T09:38:22.756Z,58.11
2023-03-24T09:40:49.138Z,58.23
2023-03-24T09:43:15.546Z,58.08
2023-03-24T09:45:41.788Z,58.05
2023-03-24T09:48:08.096Z,58.81
2023-03-24T09:50:34.415Z,58.31
2023-03-24T09:53:00.745Z,58.07
2023-03-24T09:55:27.031Z,58.30
2023-03-24T09:57:53.308Z,59.00
2023-03-24T10:00:19.574Z,57.87
2023-03-24T10:02:45.917Z,58.31
2023-03-24T10:05:12.231Z,57.30
2023-03-24T10:07:38.521Z,57.17
2023-03-24T10:10:04.813Z,57.15
2023-03-24T10:12:31.104Z,57.08
2023-03-24T10:14:57.376Z,57.06
2023-03-24T10:17:23.641Z,56.62
2023-03-24T10:19:49.909Z,56.22
2023-03-24T10:22:16.183Z,56.96
2023-03-24T10:24:42.751Z,56.82
2023-03-24T10:27:09.085Z,57.13
2023-03-24T10:29:35.352Z,57.58
2023-03-24T10:32:01.707Z,57.27
2023-03-24T10:34:28.013Z,57.56
2023-03-24T10:36:54.284Z,57.95
2023-03-24T10:39:24.298Z,58.18
2023-03-24T10:42:00.410Z,58.00
2023-03-24T10:44:26.703Z,57.83
2023-03-24T10:46:52.957Z,57.84
2023-03-24T10:49:19.245Z,56.82
2023-03-24T10:51:45.521Z,56.60
2023-03-24T10:54:11.818Z,56.25
2023-03-24T10:56:38.248Z,57.50
2023-03-24T10:59:04.604Z,56.13
2023-03-24T11:01:30.937Z,56.97
2023-03-24T11:03:57.271Z,55.92
2023-03-24T11:06:23.632Z,55.75
2023-03-24T11:08:49.926Z,55.87
2023-03-24T11:11:16.181Z,55.48
2023-03-24T11:13:42.450Z,55.43
2023-03-24T11:16:08.713Z,55.36
2023-03-24T11:18:34.998Z,55.96
2023-03-24T11:21:01.269Z,55.41
2023-03-24T11:23:27.548Z,55.51
2023-03-24T11:25:53.843Z,56.47
2023-03-24T11:28:20.129Z,55.27
2023-03-24T11:30:46.532Z,55.75
2023-03-24T11:33:12.911Z,56.08
2023-03-24T11:35:41.796Z,56.30
2023-03-24T11:38:08.496Z,55.64
2023-03-24T11:40:34.858Z,56.18
2023-03-24T11:43:01.309Z,55.60
2023-03-24T11:45:27.621Z,56.05
2023-03-24T11:47:53.923Z,55.46
2023-03-24T11:50:20.221Z,55.42
2023-03-24T11:52:46.500Z,55.14
2023-03-24T11:55:12.764Z,55.57
2023-03-24T11:57:39.003Z,55.72
2023-03-24T12:00:05.243Z,55.74
2023-03-24T12:02:31.626Z,55.47
2023-03-24T12:04:57.973Z,54.74
2023-03-24T12:07:24.256Z,54.94
2023-03-24T12:09:50.512Z,54.83
2023-03-24T12:12:16.815Z,54.38
2023-03-24T12:14:43.093Z,53.66
2023-03-24T12:17:09.342Z,54.21
2023-03-24T12:19:35.609Z,53.97
2023-03-24T12:22:01.883Z,54.23
2023-03-24T12:24:28.184Z,53.54
2023-03-24T12:26:54.458Z,53.75
2023-03-24T12:29:20.754Z,54.30
2023-03-24T12:31:47.090Z,54.92
2023-03-24T12:34:13.394Z,53.91
2023-03-24T12:36:39.690Z,55.68
2023-03-24T12:39:06.019Z,55.82
2023-03-24T12:41:32.274Z,56.48
2023-03-24T12:43:58.547Z,56.87
2023-03-24T12:46:26.379Z,57.62
2023-03-24T12:48:55.850Z,57.50
2023-03-24T12:51:22.170Z,58.69
2023-03-24T12:53:48.453Z,58.32
2023-03-24T12:56:14.728Z,58.17
2023-03-24T12:58:41.027Z,58.19
2023-03-24T13:01:07.335Z,58.78
2023-03-24T13:03:33.675Z,58.91
2023-03-24T13:06:10.956Z,58.57
2023-03-24T13:08:43.011Z,58.70
2023-03-24T13:11:09.294Z,58.23
2023-03-24T13:13:35.806Z,58.36
2023-03-24T13:16:02.102Z,58.99
2023-03-24T13:18:28.469Z,58.75
2023-03-24T13:20:54.735Z,58.86
2023-03-24T13:23:21.005Z,58.98
2023-03-24T13:25:47.533Z,59.17
2023-03-24T13:28:13.993Z,58.97
2023-03-24T13:30:40.260Z,59.38
2023-03-24T13:33:06.569Z,59.17
2023-03-24T13:35:32.908Z,59.49
2023-03-24T13:37:59.344Z,58.89
2023-03-24T13:40:25.674Z,57.22
2023-03-24T13:42:51.971Z,57.65
2023-03-24T13:45:18.240Z,57.43
2023-03-24T13:47:44.543Z,56.77
2023-03-24T13:50:10.813Z,57.16
2023-03-24T13:52:37.070Z,57.13
2023-03-24T13:55:03.385Z,57.07
2023-03-24T13:57:29.643Z,57.13
2023-03-24T13:59:56.000Z,57.22
2023-03-24T14:02:22.442Z,54.84
2023-03-24T14:04:48.804Z,54.87
2023-03-24T14:07:15.078Z,55.04
2023-03-24T14:09:41.366Z,54.64
2023-03-24T14:12:08.612Z,56.26
2023-03-24T14:14:35.020Z,56.58
2023-03-24T14:17:01.277Z,56.82
2023-03-24T14:19:27.530Z,57.21
2023-03-24T14:21:53.760Z,57.55
2023-03-24T14:24:20.034Z,57.84
2023-03-24T14:26:46.302Z,57.45
2023-03-24T14:29:12.574Z,57.50
2023-03-24T14:31:38.919Z,57.68
2023-03-24T14:34:05.315Z,58.13
2023-03-24T14:36:31.588Z,57.66
2023-03-24T14:38:57.853Z,57.96
2023-03-24T14:41:24.099Z,58.45
2023-03-24T14:43:50.397Z,58.66
2023-03-24T14:46:16.714Z,58.03
2023-03-24T14:48:43.019Z,56.44
2023-03-24T14:51:09.364Z,56.75
2023-03-24T14:53:35.851Z,57.22
2023-03-24T14:56:02.126Z,57.32
2023-03-24T14:58:28.408Z,57.06
2023-03-24T15:01:06.536Z,56.37
2023-03-24T15:03:33.768Z,57.84
2023-03-24T15:06:00.079Z,58.83
2023-03-24T15:08:26.333Z,59.39
2023-03-24T15:10:52.977Z,59.42
2023-03-24T15:13:19.401Z,59.19
2023-03-24T15:15:45.676Z,59.50
2023-03-24T15:18:12.065Z,60.03
2023-03-24T15:20:38.372Z,60.08
2023-03-24T15:23:04.641Z,59.63
2023-03-24T15:25:30.987Z,58.95
2023-03-24T15:27:57.253Z,59.80
2023-03-24T15:30:23.515Z,59.12
2023-03-24T15:32:49.853Z,59.58
2023-03-24T15:35:16.136Z,59.03
2023-03-24T15:37:42.404Z,59.33
2023-03-24T15:40:15.820Z,59.83
2023-03-24T15:42:42.342Z,59.47
2023-03-24T15:45:08.637Z,59.64
2023-03-24T15:47:34.946Z,60.07
2023-03-24T15:50:01.271Z,58.90
2023-03-24T15:52:27.544Z,60.00
2023-03-24T15:54:53.810Z,58.19
2023-03-24T15:57:20.114Z,55.93
2023-03-24T15:59:46.370Z,55.51
2023-03-24T16:02:12.686Z,56.71
2023-03-24T16:04:38.963Z,56.14
2023-03-24T16:07:05.280Z,56.48
2023-03-24T16:09:31.553Z,56.31
2023-03-24T16:11:57.814Z,56.52
2023-03-24T16:14:24.100Z,55.74
2023-03-24T16:16:50.468Z,54.44
2023-03-24T16:19:16.763Z,53.94
2023-03-24T16:21:43.010Z,53.60
2023-03-24T16:24:09.274Z,54.07
2023-03-24T16:26:35.541Z,54.62
2023-03-24T16:29:01.807Z,53.35
2023-03-24T16:31:28.161Z,53.84
2023-03-24T16:33:56.026Z,53.70
2023-03-24T16:36:24.058Z,53.77
2023-03-24T16:38:50.333Z,53.02
2023-03-24T16:41:16.593Z,53.85
2023-03-24T16:43:42.867Z,54.74
2023-03-24T16:46:09.163Z,53.01
2023-03-24T16:48:35.446Z,52.75
2023-03-24T16:51:01.692Z,53.01
2023-03-24T16:53:28.020Z,53.79
2023-03-24T16:55:54.267Z,53.65
2023-03-24T16:58:20.533Z,53.97
2023-03-24T17:00:47.046Z,54.86
2023-03-24T17:03:13.627Z,55.53
2023-03-24T17:05:40.148Z,55.52
2023-03-24T17:08:06.398Z,55.62
2023-03-24T17:10:32.662Z,56.43
2023-03-24T17:12:58.916Z,55.60
2023-03-24T17:15:25.166Z,56.56
2023-03-24T17:17:51.436Z,57.08
2023-03-24T17:20:17.738Z,57.12
2023-03-24T17:22:44.002Z,57.83
2023-03-24T17:25:10.253Z,58.16
2023-03-24T17:27:36.509Z,58.32
2023-03-24T17:30:02.835Z,59.15
2023-03-24T17:32:29.170Z,59.23
2023-03-24T17:34:55.437Z,59.02
2023-03-24T17:37:21.693Z,59.21
2023-03-24T17:39:47.955Z,59.63
2023-03-24T17:42:14.210Z,59.08
2023-03-24T17:44:40.492Z,59.35
2023-03-24T17:47:06.812Z,58.89
2023-03-24T17:49:33.084Z,59.64
2023-03-24T17:51:59.356Z,59.33
2023-03-24T17:54:25.622Z,59.41
2023-03-24T17:56:51.945Z,59.74
2023-03-24T17:59:18.242Z,60.47
2023-03-24T18:01:44.548Z,60.33
2023-03-24T18:04:10.856Z,61.03
2023-03-24T18:06:37.146Z,61.01
2023-03-24T18:09:03.424Z,61.58
2023-03-24T18:11:29.692Z,61.28
2023-03-24T18:13:55.950Z,60.88
2023-03-24T18:16:22.541Z,61.25
2023-03-24T18:18:48.874Z,61.36
2023-03-24T18:21:15.157Z,61.41
2023-03-24T18:23:41.432Z,61.97
2023-03-24T18:26:07.764Z,60.60
2023-03-24T18:28:34.045Z,60.74
2023-03-24T18:31:00.347Z,61.16
2023-03-24T18:33:26.617Z,60.97
2023-03-24T18:35:53.001Z,61.74
2023-03-24T18:38:19.285Z,60.40
2023-03-24T18:40:45.567Z,60.88
2023-03-24T18:43:11.855Z,60.04
2023-03-24T18:45:38.163Z,60.00
2023-03-24T18:48:04.502Z,59.97
2023-03-24T18:50:30.785Z,60.17
2023-03-24T18:52:57.058Z,59.92
2023-03-24T18:55:23.296Z,60.10
2023-03-24T18:57:49.608Z,59.92
2023-03-24T19:00:15.876Z,60.07
2023-03-24T19:02:42.215Z,59.99
2023-03-24T19:05:08.537Z,61.01
2023-03-24T19:07:34.799Z,60.16
2023-03-24T19:10:01.096Z,60.91
2023-03-24T19:12:27.403Z,60.33
2023-03-24T19:14:53.707Z,60.49
2023-03-24T19:17:19.975Z,60.72
2023-03-24T19:19:46.236Z,61.49
2023-03-24T19:22:12.480Z,61.16
2023-03-24T19:24:38.749Z,61.08
2023-03-24T19:27:05.027Z,60.90
2023-03-24T19:29:31.328Z,59.98
2023-03-24T19:31:57.624Z,60.30
2023-03-24T19:34:23.883Z,60.02
2023-03-24T19:36:50.170Z,60.46
2023-03-24T19:39:16.444Z,60.62
2023-03-24T19:41:42.744Z,60.74
2023-03-24T19:44:09.025Z,60.93
2023-03-24T19:46:35.319Z,60.41
2023-03-24T19:49:01.604Z,59.91
2023-03-24T19:51:27.875Z,59.56
2023-03-24T19:53:54.139Z,60.29
2023-03-24T19:56:20.427Z,60.00
2023-03-24T19:58:46.680Z,59.48
2023-03-24T20:01:12.964Z,59.37
2023-03-24T20:03:39.312Z,59.74
2023-03-24T20:06:05.647Z,58.60
2023-03-24T20:08:31.920Z,58.74
2023-03-24T20:10:58.199Z,58.71
2023-03-24T20:13:24.578Z,58.77
2023-03-24T20:15:51.196Z,57.51
2023-03-24T20:18:17.616Z,57.60
2023-03-24T20:20:43.895Z,57.09
2023-03-24T20:23:10.178Z,57.47
2023-03-24T20:25:36.442Z,55.57
2023-03-24T20:28:02.708Z,55.62
2023-03-24T20:30:28.980Z,56.20
2023-03-24T20:32:55.259Z,56.05
2023-03-24T20:35:21.773Z,55.99
2023-03-24T20:37:48.032Z,56.43
2023-03-24T20:40:14.307Z,56.33
2023-03-24T20:42:40.556Z,56.25
2023-03-24T20:45:06.916Z,56.08
2023-03-24T20:47:33.200Z,56.09
2023-03-24T20:49:59.524Z,56.39
2023-03-24T20:52:25.785Z,55.71
2023-03-24T20:54:52.053Z,56.11
2023-03-24T20:57:18.322Z,56.28
2023-03-24T20:59:45.661Z,56.28
2023-03-24T21:02:12.009Z,56.52
2023-03-24T21:04:38.339Z,55.97
2023-03-24T21:07:04.589Z,56.23
2023-03-24T21:09:30.863Z,56.22
2023-03-24T21:11:57.152Z,55.98
2023-03-24T21:14:23.482Z,54.46
2023-03-24T21:16:49.852Z,54.59
2023-03-24T21:19:16.136Z,54.36
2023-03-24T21:21:42.406Z,54.23
2023-03-24T21:24:08.689Z,54.48
2023-03-24T21:26:35.017Z,54.09
2023-03-24T21:29:01.277Z,53.99
2023-03-24T21:31:27.559Z,54.03
2023-03-24T21:33:53.844Z,54.06
2023-03-24T21:36:20.242Z,54.88
2023-03-24T21:38:46.528Z,54.89
2023-03-24T21:41:12.809Z,55.78
2023-03-24T21:43:39.090Z,56.00
2023-03-24T21:46:05.381Z,56.36
2023-03-24T21:48:31.760Z,55.88
2023-03-24T21:50:58.009Z,56.89
2023-03-24T21:53:24.287Z,56.53
2023-03-24T21:55:51.180Z,56.99
2023-03-24T21:58:17.764Z,56.66
2023-03-24T22:00:44.029Z,56.20
2023-03-24T22:03:10.322Z,56.94
2023-03-24T22:05:36.635Z,56.16
2023-03-24T22:08:02.905Z,55.03
2023-03-24T22:10:29.172Z,54.78
2023-03-24T22:12:55.451Z,54.37
2023-03-24T22:15:21.726Z,54.23
2023-03-24T22:17:48.063Z,54.81
2023-03-24T22:20:14.363Z,55.05
2023-03-24T22:22:40.731Z,54.52
2023-03-24T22:25:07.042Z,54.76
2023-03-24T22:27:33.294Z,54.83
2023-03-24T22:29:59.648Z,56.04
2023-03-24T22:32:25.951Z,55.98
2023-03-24T22:34:52.282Z,56.15
2023-03-24T22:37:18.549Z,55.75
2023-03-24T22:39:44.886Z,56.40
2023-03-24T22:42:11.167Z,55.64
2023-03-24T22:44:37.471Z,56.37
2023-03-24T22:47:03.766Z,56.43
2023-03-24T22:49:30.077Z,56.61
2023-03-24T22:51:56.351Z,56.43
2023-03-24T22:54:22.630Z,56.64
2023-03-24T22:56:48.939Z,56.73
2023-03-24T22:59:15.221Z,56.56
2023-03-24T23:01:41.496Z,56.14
2023-03-24T23:04:07.793Z,56.05
2023-03-24T23:06:34.093Z,56.04
2023-03-24T23:09:00.372Z,56.22
2023-03-24T23:11:26.654Z,56.83
2023-03-24T23:13:52.927Z,56.81
2023-03-24T23:16:19.253Z,57.20
2023-03-24T23:18:45.539Z,57.15
2023-03-24T23:21:11.790Z,57.52
2023-03-24T23:23:38.059Z,57.63
2023-03-24T23:26:04.334Z,58.26
2023-03-24T23:28:30.632Z,57.86
2023-03-24T23:30:56.893Z,57.81
2023-03-24T23:33:23.284Z,58.23
2023-03-24T23:35:49.766Z,57.14
2023-03-24T23:38:16.199Z,56.54
2023-03-24T23:40:42.457Z,55.33
2023-03-24T23:43:08.734Z,55.80
2023-03-24T23:45:35.058Z,55.58
2023-03-24T23:48:01.348Z,56.38
2023-03-24T23:50:27.637Z,54.80
2023-03-24T23:52:53.904Z,54.27
2023-03-24T23:55:20.190Z,53.92
2023-03-24T23:57:46.638Z,54.89
